createdAt,value
2023-04-29T00:02:05.899Z,99799.16
2023-04-29T00:04:55.259Z,99803.25
2023-04-29T00:07:44.134Z,99796.88
2023-04-29T00:10:32.656Z,99788.19
2023-04-29T00:13:21.264Z,99791.84
2023-04-29T00:16:11.432Z,99799.38
2023-04-29T00:19:00.226Z,99795.53
2023-04-29T00:21:48.923Z,99793.97
2023-04-29T00:24:37.682Z,99796.44
2023-04-29T00:27:26.465Z,99791.75
2023-04-29T00:30:14.935Z,99796.81
2023-04-29T00:33:05.020Z,99798.84
2023-04-29T00:35:53.512Z,99788.09
2023-04-29T00:38:41.980Z,99792.53
2023-04-29T00:41:30.929Z,99744.97
2023-04-29T00:44:19.382Z,99797.47
2023-04-29T00:47:11.345Z,99792.53
2023-04-29T00:50:01.323Z,99804.66
2023-04-29T00:52:50.209Z,99799.56
2023-04-29T00:55:38.758Z,99800.16
2023-04-29T00:58:32.992Z,99804.13
2023-04-29T01:01:21.898Z,99801.69
2023-04-29T01:04:10.951Z,99802.44
2023-04-29T01:07:06.271Z,99801.72
2023-04-29T01:09:59.906Z,99807.22
2023-04-29T01:12:53.680Z,99810.28
2023-04-29T01:15:48.819Z,99808.06
2023-04-29T01:18:40.556Z,99808.22
2023-04-29T01:21:31.994Z,99813.97
2023-04-29T01:24:21.765Z,99810.72
2023-04-29T01:27:20.094Z,99815.28
2023-04-29T01:30:13.697Z,99807.56
2023-04-29T01:33:07.621Z,99801.44
2023-04-29T01:36:05.256Z,99800.88
2023-04-29T01:38:59.022Z,99814.00
2023-04-29T01:41:58.885Z,99819.28
2023-04-29T01:44:48.892Z,99813.78
2023-04-29T01:47:37.881Z,99812.41
2023-04-29T01:50:26.525Z,99812.63
2023-04-29T01:53:15.297Z,99812.16
2023-04-29T01:56:03.810Z,99814.25
2023-04-29T01:58:53.687Z,99819.66
2023-04-29T02:01:42.170Z,99815.44
2023-04-29T02:04:33.641Z,99814.13
2023-04-29T02:07:22.139Z,99822.13
2023-04-29T02:10:11.978Z,99817.56
2023-04-29T02:13:01.368Z,99818.72
2023-04-29T02:15:51.245Z,99831.50
2023-04-29T02:18:40.090Z,99828.81
2023-04-29T02:21:28.565Z,99833.59
2023-04-29T02:24:17.118Z,99829.53
2023-04-29T02:27:06.799Z,99827.59
2023-04-29T02:29:55.234Z,99830.66
2023-04-29T02:32:45.065Z,99841.44
2023-04-29T02:35:33.583Z,99835.38
2023-04-29T02:38:22.002Z,99837.34
2023-04-29T02:41:10.549Z,99847.63
2023-04-29T02:43:59.022Z,99843.75
2023-04-29T02:46:47.836Z,99850.78
2023-04-29T02:49:37.640Z,99847.63
2023-04-29T02:52:26.118Z,99851.63
2023-04-29T02:55:14.574Z,99834.59
2023-04-29T02:58:03.911Z,99853.72
2023-04-29T03:00:52.461Z,99849.16
2023-04-29T03:03:41.199Z,99861.31
2023-04-29T03:06:31.440Z,99853.00
2023-04-29T03:09:21.432Z,99868.72
2023-04-29T03:12:09.934Z,99863.66
2023-04-29T03:14:58.530Z,99852.41
2023-04-29T03:17:47.166Z,99852.69
2023-04-29T03:20:35.715Z,99872.81
2023-04-29T03:23:26.782Z,99859.44
2023-04-29T03:26:15.342Z,99871.03
2023-04-29T03:29:04.036Z,99803.56
2023-04-29T03:31:52.763Z,99862.22
2023-04-29T03:34:41.320Z,99845.03
2023-04-29T03:37:29.808Z,99863.53
2023-04-29T03:40:19.694Z,99859.31
2023-04-29T03:43:09.134Z,99861.19
2023-04-29T03:45:57.631Z,99863.75
2023-04-29T03:48:46.153Z,99871.47
2023-04-29T03:51:34.959Z,99872.75
2023-04-29T03:54:23.689Z,99873.00
2023-04-29T03:57:13.518Z,99870.75
2023-04-29T04:00:01.965Z,99876.13
2023-04-29T04:02:50.641Z,99883.09
2023-04-29T04:05:39.212Z,99890.03
2023-04-29T04:08:27.639Z,99886.16
2023-04-29T04:11:16.142Z,99894.09
2023-04-29T04:14:06.475Z,99893.94
2023-04-29T04:16:55.006Z,99898.88
2023-04-29T04:19:43.499Z,99891.69
2023-04-29T04:22:32.025Z,99885.75
2023-04-29T04:25:20.433Z,99910.34
2023-04-29T04:28:08.961Z,99902.34
2023-04-29T04:30:58.920Z,99915.00
2023-04-29T04:33:47.449Z,99920.03
2023-04-29T04:36:35.968Z,99935.00
2023-04-29T04:39:24.581Z,99924.84
2023-04-29T04:42:13.071Z,99937.06
2023-04-29T04:45:01.498Z,99933.38
2023-04-29T04:47:51.376Z,99943.56
2023-04-29T04:50:40.109Z,99945.19
2023-04-29T04:53:28.615Z,99943.56
2023-04-29T04:56:17.062Z,99954.47
2023-04-29T04:59:05.531Z,99957.84
2023-04-29T05:01:54.096Z,99967.59
2023-04-29T05:04:44.674Z,99969.59
2023-04-29T05:07:35.844Z,99973.47
2023-04-29T05:10:26.539Z,99974.91
2023-04-29T05:13:15.020Z,99968.03
2023-04-29T05:16:06.383Z,99980.81
2023-04-29T05:18:55.168Z,99987.84
2023-04-29T05:21:45.027Z,99982.41
2023-04-29T05:24:33.519Z,99983.72
2023-04-29T05:27:21.960Z,99986.78
2023-04-29T05:30:11.124Z,99998.53
2023-04-29T05:32:59.695Z,99995.22
2023-04-29T05:35:48.191Z,100000.19
2023-04-29T05:38:38.250Z,100010.13
2023-04-29T05:41:26.846Z,100011.91
2023-04-29T05:44:15.323Z,99999.22
2023-04-29T05:47:03.834Z,100010.25
2023-04-29T05:49:52.675Z,100010.66
2023-04-29T05:52:41.318Z,100023.22
2023-04-29T05:55:31.243Z,100031.75
2023-04-29T05:58:19.750Z,100028.53
2023-04-29T06:01:08.180Z,100037.06
2023-04-29T06:03:56.786Z,100033.00
2023-04-29T06:06:45.508Z,100040.34
2023-04-29T06:09:34.012Z,100040.38
2023-04-29T06:12:24.067Z,100050.03
2023-04-29T06:15:12.681Z,100039.53
2023-04-29T06:18:01.268Z,100064.91
2023-04-29T06:20:49.796Z,100062.88
2023-04-29T06:23:38.313Z,100057.13
2023-04-29T06:26:26.835Z,100070.97
2023-04-29T06:29:16.665Z,100065.53
2023-04-29T06:32:05.633Z,100073.88
2023-04-29T06:34:54.202Z,100072.56
2023-04-29T06:37:42.666Z,100072.91
2023-04-29T06:40:31.144Z,100076.09
2023-04-29T06:43:19.620Z,100088.25
2023-04-29T06:46:09.936Z,100090.56
2023-04-29T06:48:58.516Z,100094.56
2023-04-29T06:51:46.962Z,100099.94
2023-04-29T06:54:35.619Z,100101.81
2023-04-29T06:57:24.041Z,100097.91
2023-04-29T07:00:13.134Z,100104.88
2023-04-29T07:03:03.367Z,100107.03
2023-04-29T07:05:51.904Z,100103.53
2023-04-29T07:08:40.516Z,100112.06
2023-04-29T07:11:29.172Z,100112.81
2023-04-29T07:14:17.709Z,100115.03
2023-04-29T07:17:06.477Z,100106.25
2023-04-29T07:19:56.280Z,100127.44
2023-04-29T07:22:44.724Z,100064.31
2023-04-29T07:25:34.033Z,100129.78
2023-04-29T07:28:22.510Z,100143.09
2023-04-29T07:31:11.836Z,100067.78
2023-04-29T07:34:00.333Z,100137.53
2023-04-29T07:36:50.130Z,100142.94
2023-04-29T07:39:38.617Z,100149.28
2023-04-29T07:42:27.362Z,100152.03
2023-04-29T07:45:15.953Z,100162.28
2023-04-29T07:48:04.674Z,100165.78
2023-04-29T07:50:53.227Z,100159.56
2023-04-29T07:53:43.353Z,100158.97
2023-04-29T07:56:32.394Z,100167.09
2023-04-29T07:59:20.951Z,100166.38
2023-04-29T08:02:09.478Z,100166.84
2023-04-29T08:04:58.177Z,100170.16
2023-04-29T08:07:47.198Z,100173.19
2023-04-29T08:10:41.000Z,100170.97
2023-04-29T08:13:29.552Z,100170.25
2023-04-29T08:16:18.089Z,100168.00
2023-04-29T08:19:06.622Z,100169.44
2023-04-29T08:21:55.145Z,100168.28
2023-04-29T08:24:45.189Z,100169.91
2023-04-29T08:27:34.997Z,100178.25
2023-04-29T08:30:23.929Z,100177.91
2023-04-29T08:33:13.127Z,100178.59
2023-04-29T08:36:03.808Z,100069.78
2023-04-29T08:38:52.902Z,100173.03
2023-04-29T08:41:49.315Z,100170.81
2023-04-29T08:44:40.897Z,100174.47
2023-04-29T08:47:31.299Z,100177.41
2023-04-29T08:50:19.896Z,100183.63
2023-04-29T08:53:08.932Z,100181.63
2023-04-29T08:55:59.636Z,100187.13
2023-04-29T08:58:49.640Z,100181.88
2023-04-29T09:01:41.882Z,100193.97
2023-04-29T09:04:38.105Z,100163.66
2023-04-29T09:07:27.192Z,100182.44
2023-04-29T09:10:18.782Z,100188.53
2023-04-29T09:13:07.235Z,100188.53
2023-04-29T09:15:56.144Z,100192.22
2023-04-29T09:18:47.491Z,100195.28
2023-04-29T09:21:35.998Z,100196.00
2023-04-29T09:24:27.372Z,100196.13
2023-04-29T09:27:29.294Z,100201.28
2023-04-29T09:30:18.152Z,100193.63
2023-04-29T09:33:08.550Z,100204.69
2023-04-29T09:36:00.977Z,100204.59
2023-04-29T09:38:55.028Z,100165.06
2023-04-29T09:41:59.078Z,100204.13
2023-04-29T09:44:47.791Z,100210.34
2023-04-29T09:47:36.460Z,100213.75
2023-04-29T09:50:25.092Z,100213.03
2023-04-29T09:53:29.883Z,100207.91
2023-04-29T09:56:18.435Z,100210.47
2023-04-29T09:59:09.798Z,100211.66
2023-04-29T10:01:59.078Z,100211.25
2023-04-29T10:04:48.867Z,100186.56
2023-04-29T10:07:40.729Z,100204.53
2023-04-29T10:10:31.454Z,100209.56
2023-04-29T10:13:20.046Z,100200.38
2023-04-29T10:16:18.412Z,100209.47
2023-04-29T10:19:09.583Z,100189.94
2023-04-29T10:21:59.893Z,100192.31
2023-04-29T10:24:49.488Z,100224.56
2023-04-29T10:27:41.447Z,100225.25
2023-04-29T10:30:30.163Z,100217.88
2023-04-29T10:33:19.047Z,100162.63
2023-04-29T10:36:09.269Z,100221.69
2023-04-29T10:39:00.700Z,100223.97
2023-04-29T10:41:49.258Z,100221.72
2023-04-29T10:45:26.809Z,100219.16
2023-04-29T10:48:18.774Z,100217.19
2023-04-29T10:51:07.346Z,100228.72
2023-04-29T10:54:03.446Z,100229.19
2023-04-29T10:56:52.900Z,100227.03
2023-04-29T10:59:48.908Z,100232.09
2023-04-29T11:02:38.285Z,100237.72
2023-04-29T11:05:32.148Z,100232.31
2023-04-29T11:08:24.041Z,100229.94
2023-04-29T11:11:14.674Z,100224.84
2023-04-29T11:14:03.977Z,100229.28
2023-04-29T11:16:55.481Z,100222.88
2023-04-29T11:19:46.369Z,100155.88
2023-04-29T11:22:35.027Z,100212.19
2023-04-29T11:25:28.446Z,100216.28
2023-04-29T11:28:17.133Z,100230.41
2023-04-29T11:31:05.880Z,100236.41
2023-04-29T11:33:55.721Z,100227.22
2023-04-29T11:36:45.782Z,100220.38
2023-04-29T11:39:36.405Z,100236.56
2023-04-29T11:42:24.928Z,100230.56
2023-04-29T11:45:13.480Z,100230.56
2023-04-29T11:48:02.127Z,100234.88
2023-04-29T11:50:53.583Z,100073.56
2023-04-29T11:53:42.236Z,100231.19
2023-04-29T11:56:30.818Z,100236.22
2023-04-29T11:59:20.510Z,100245.78
2023-04-29T12:02:13.065Z,100241.50
2023-04-29T12:05:02.442Z,100250.81
2023-04-29T12:07:52.666Z,100242.00
2023-04-29T12:10:41.123Z,100246.31
2023-04-29T12:13:31.278Z,100236.94
2023-04-29T12:16:19.871Z,100244.94
2023-04-29T12:19:10.437Z,100250.63
2023-04-29T12:21:59.972Z,100247.31
2023-04-29T12:24:50.891Z,100243.59
2023-04-29T12:27:42.228Z,100249.94
2023-04-29T12:30:30.791Z,100250.22
2023-04-29T12:33:23.537Z,100232.81
2023-04-29T12:36:18.182Z,100250.13
2023-04-29T12:39:08.397Z,100252.00
2023-04-29T12:41:59.539Z,100249.94
2023-04-29T12:44:48.298Z,100264.53
2023-04-29T12:47:37.202Z,100255.81
2023-04-29T12:50:32.794Z,100246.94
2023-04-29T12:53:21.313Z,100249.00
2023-04-29T12:56:09.780Z,100256.88
2023-04-29T12:59:06.323Z,100262.28
2023-04-29T13:01:55.159Z,100259.13
2023-04-29T13:04:43.929Z,100267.34
2023-04-29T13:07:32.668Z,100267.56
2023-04-29T13:10:22.194Z,100270.50
2023-04-29T13:13:10.758Z,100261.06
2023-04-29T13:16:01.297Z,100261.91
2023-04-29T13:19:05.285Z,100254.88
2023-04-29T13:21:58.568Z,100260.31
2023-04-29T13:24:47.432Z,100264.41
2023-04-29T13:27:35.961Z,100257.22
2023-04-29T13:30:24.624Z,100275.44
2023-04-29T13:33:14.652Z,100250.66
2023-04-29T13:36:03.499Z,100276.75
2023-04-29T13:38:55.592Z,100273.22
2023-04-29T13:41:45.916Z,100263.00
2023-04-29T13:44:51.054Z,100282.19
2023-04-29T13:47:57.483Z,100282.19
2023-04-29T13:51:27.081Z,100282.19
2023-04-29T13:54:48.176Z,100278.91
2023-04-29T13:57:39.286Z,100292.66
2023-04-29T14:03:09.189Z,100290.44
2023-04-29T14:05:59.177Z,100291.50
2023-04-29T14:08:48.006Z,100287.34
2023-04-29T14:11:36.970Z,100296.44
2023-04-29T14:14:25.771Z,100277.69
2023-04-29T14:17:14.597Z,100296.75
2023-04-29T14:20:03.358Z,100279.66
2023-04-29T14:22:53.362Z,100296.16
2023-04-29T14:25:41.861Z,100301.09
2023-04-29T14:28:30.379Z,100299.69
2023-04-29T14:31:18.950Z,100287.09
2023-04-29T14:34:07.520Z,100308.88
2023-04-29T14:36:59.065Z,100293.59
2023-04-29T14:39:48.943Z,100312.28
2023-04-29T14:42:37.590Z,100316.63
2023-04-29T14:45:26.146Z,100310.50
2023-04-29T14:48:14.659Z,100322.25
2023-04-29T14:51:03.268Z,100315.44
2023-04-29T14:53:52.827Z,100322.78
2023-04-29T14:56:42.725Z,100328.41
2023-04-29T14:59:32.148Z,100323.88
2023-04-29T15:02:20.641Z,100330.34
2023-04-29T15:05:09.653Z,100320.69
2023-04-29T15:08:00.242Z,100313.41
2023-04-29T15:10:49.998Z,100297.91
2023-04-29T15:13:40.157Z,100331.72
2023-04-29T15:16:29.395Z,100322.53
2023-04-29T15:19:17.921Z,100312.91
2023-04-29T15:22:06.442Z,100318.84
2023-04-29T15:24:55.411Z,100330.50
2023-04-29T15:27:43.917Z,100335.06
2023-04-29T15:30:33.786Z,100340.00
2023-04-29T15:33:22.365Z,100343.72
2023-04-29T15:36:10.910Z,100334.63
2023-04-29T15:38:59.677Z,100348.13
2023-04-29T15:41:48.232Z,100336.34
2023-04-29T15:44:36.681Z,100329.84
2023-04-29T15:47:26.663Z,100345.28
2023-04-29T15:50:15.237Z,100352.56
2023-04-29T15:53:03.779Z,100356.16
2023-04-29T15:55:52.255Z,100353.00
2023-04-29T15:58:40.755Z,100352.34
2023-04-29T16:01:29.403Z,100341.66
2023-04-29T16:04:19.292Z,100353.91
2023-04-29T16:07:07.832Z,100360.22
2023-04-29T16:09:56.434Z,100358.81
2023-04-29T16:12:45.047Z,100347.16
2023-04-29T16:15:33.654Z,100346.38
2023-04-29T16:18:22.243Z,100354.81
2023-04-29T16:21:13.561Z,100351.44
2023-04-29T16:24:02.181Z,100356.28
2023-04-29T16:26:50.964Z,100363.16
2023-04-29T16:29:39.494Z,100347.84
2023-04-29T16:32:29.063Z,100346.94
2023-04-29T16:35:17.747Z,100346.28
2023-04-29T16:38:07.625Z,100336.75
2023-04-29T16:40:56.218Z,100349.19
2023-04-29T16:43:44.770Z,100343.72
2023-04-29T16:46:33.501Z,100339.91
2023-04-29T16:49:26.104Z,100347.34
2023-04-29T16:52:14.700Z,100343.00
2023-04-29T16:55:05.008Z,100326.03
2023-04-29T16:57:53.531Z,100343.00
2023-04-29T17:00:42.012Z,100346.13
2023-04-29T17:03:30.795Z,100342.66
2023-04-29T17:06:19.364Z,100351.38
2023-04-29T17:09:08.050Z,100336.53
2023-04-29T17:11:58.393Z,100355.59
2023-04-29T17:14:48.312Z,100356.63
2023-04-29T17:17:36.863Z,100356.63
2023-04-29T17:20:25.371Z,100351.00
2023-04-29T17:23:13.828Z,100351.84
2023-04-29T17:26:02.305Z,100353.63
2023-04-29T17:28:52.170Z,100355.50
2023-04-29T17:31:45.869Z,100313.28
2023-04-29T17:34:36.612Z,100359.41
2023-04-29T17:37:25.873Z,100358.13
2023-04-29T17:40:14.538Z,100355.66
2023-04-29T17:43:03.014Z,100357.91
2023-04-29T17:45:53.011Z,100350.78
2023-04-29T17:48:41.585Z,100352.78
2023-04-29T17:51:32.997Z,100359.88
2023-04-29T17:54:21.540Z,100369.44
2023-04-29T17:57:10.432Z,100373.22
2023-04-29T17:59:59.002Z,100366.63
2023-04-29T18:02:48.979Z,100376.22
2023-04-29T18:05:38.156Z,100276.16
2023-04-29T18:08:26.675Z,100367.44
2023-04-29T18:11:15.162Z,100364.06
2023-04-29T18:14:04.741Z,100375.94
2023-04-29T18:16:53.498Z,100369.41
2023-04-29T18:19:43.929Z,100369.72
2023-04-29T18:22:32.951Z,100367.09
2023-04-29T18:25:21.663Z,100369.00
2023-04-29T18:28:24.014Z,100367.88
2023-04-29T18:31:13.638Z,100368.97
2023-04-29T18:34:04.598Z,100371.88
2023-04-29T18:36:54.446Z,100284.75
2023-04-29T18:39:42.936Z,100374.22
2023-04-29T18:42:31.358Z,100370.16
2023-04-29T18:45:19.956Z,100330.13
2023-04-29T18:48:08.693Z,100372.88
2023-04-29T18:50:59.177Z,100286.22
2023-04-29T18:53:49.192Z,100374.44
2023-04-29T18:56:39.676Z,100385.44
2023-04-29T18:59:29.740Z,100377.28
2023-04-29T19:02:18.222Z,100387.84
2023-04-29T19:05:11.077Z,100384.56
2023-04-29T19:07:59.715Z,100394.28
2023-04-29T19:10:49.561Z,100379.34
2023-04-29T19:13:38.076Z,100391.94
2023-04-29T19:16:26.746Z,100395.88
2023-04-29T19:19:15.421Z,100404.00
2023-04-29T19:22:05.312Z,100414.38
2023-04-29T19:24:53.868Z,100409.41
2023-04-29T19:27:45.210Z,100418.94
2023-04-29T19:30:34.765Z,100427.63
2023-04-29T19:33:23.244Z,100425.56
2023-04-29T19:36:14.137Z,100424.34
2023-04-29T19:39:04.371Z,100428.28
2023-04-29T19:41:52.916Z,100431.41
2023-04-29T19:44:42.751Z,100437.63
2023-04-29T19:47:31.277Z,100415.69
2023-04-29T19:50:20.301Z,100419.00
2023-04-29T19:53:09.335Z,100432.25
2023-04-29T19:55:57.838Z,100426.22
2023-04-29T19:58:46.598Z,100428.28
2023-04-29T20:01:36.452Z,100429.56
2023-04-29T20:04:25.692Z,100429.75
2023-04-29T20:07:14.167Z,100431.81
2023-04-29T20:10:02.693Z,100391.31
2023-04-29T20:12:51.228Z,100432.03
2023-04-29T20:15:39.796Z,100431.44
2023-04-29T20:18:29.757Z,100433.28
2023-04-29T20:21:18.290Z,100435.56
2023-04-29T20:24:07.208Z,100395.44
2023-04-29T20:26:55.850Z,100437.84
2023-04-29T20:29:44.903Z,100431.66
2023-04-29T20:32:33.548Z,100447.16
2023-04-29T20:35:23.351Z,100441.38
2023-04-29T20:38:11.928Z,100443.84
2023-04-29T20:41:00.395Z,100443.63
2023-04-29T20:43:49.180Z,100422.56
2023-04-29T20:46:38.027Z,100451.50
2023-04-29T20:49:26.799Z,100449.66
2023-04-29T20:52:17.347Z,100457.72
2023-04-29T20:55:06.441Z,100445.50
2023-04-29T20:57:55.067Z,100440.94
2023-04-29T21:00:43.642Z,100447.78
2023-04-29T21:03:32.201Z,100451.50
2023-04-29T21:06:20.818Z,100452.97
2023-04-29T21:09:11.105Z,100455.66
2023-04-29T21:12:01.385Z,100451.94
2023-04-29T21:14:49.982Z,100451.53
2023-04-29T21:17:38.500Z,100443.88
2023-04-29T21:20:27.212Z,100457.94
2023-04-29T21:23:15.723Z,100453.59
2023-04-29T21:26:06.000Z,100453.59
2023-04-29T21:28:54.537Z,100453.00
2023-04-29T21:31:43.077Z,100424.44
2023-04-29T21:34:31.636Z,100465.81
2023-04-29T21:37:20.182Z,100462.28
2023-04-29T21:40:09.943Z,100459.19
2023-04-29T21:42:59.995Z,100456.69
2023-04-29T21:45:49.944Z,100463.13
2023-04-29T21:48:38.458Z,100451.34
2023-04-29T21:51:27.095Z,100460.63
2023-04-29T21:54:15.532Z,100470.56
2023-04-29T21:57:05.803Z,100465.19
2023-04-29T21:59:55.867Z,100473.25
2023-04-29T22:02:44.515Z,100466.22
2023-04-29T22:05:33.099Z,100468.28
2023-04-29T22:08:21.651Z,100471.63
2023-04-29T22:11:10.194Z,100459.59
2023-04-29T22:13:58.701Z,100469.13
2023-04-29T22:16:48.778Z,100473.06
2023-04-29T22:19:38.091Z,100475.75
2023-04-29T22:22:26.648Z,100440.59
2023-04-29T22:25:15.240Z,100465.59
2023-04-29T22:28:03.791Z,100476.34
2023-04-29T22:30:52.879Z,100470.59
2023-04-29T22:33:42.739Z,100447.59
2023-04-29T22:36:32.143Z,100473.69
2023-04-29T22:39:20.725Z,100472.84
2023-04-29T22:42:09.240Z,100475.75
2023-04-29T22:44:57.761Z,100476.56
2023-04-29T22:47:46.291Z,100474.31
2023-04-29T22:50:36.151Z,100472.88
2023-04-29T22:53:24.837Z,100477.00
2023-04-29T22:56:13.335Z,100477.41
2023-04-29T22:59:01.782Z,100476.56
2023-04-29T23:01:50.379Z,100480.72
2023-04-29T23:04:39.013Z,100481.94
2023-04-29T23:07:28.976Z,100463.13
2023-04-29T23:10:17.686Z,100453.41
2023-04-29T23:13:06.671Z,100474.28
2023-04-29T23:15:56.650Z,100478.63
2023-04-29T23:18:45.279Z,100489.59
2023-04-29T23:21:33.802Z,100485.03
2023-04-29T23:24:23.752Z,100492.91
2023-04-29T23:27:12.377Z,100497.28
2023-04-29T23:30:00.870Z,100502.22
2023-04-29T23:32:49.637Z,100485.03
2023-04-29T23:35:38.160Z,100497.44
2023-04-29T23:38:26.687Z,100487.50
2023-04-29T23:41:16.542Z,100484.22
2023-04-29T23:44:04.969Z,100483.38
2023-04-29T23:46:53.653Z,100487.94
2023-04-29T23:49:42.181Z,100492.47
2023-04-29T23:52:30.684Z,100489.38
2023-04-29T23:55:20.637Z,100497.03
2023-04-29T23:58:10.531Z,100489.38
